createdAt,value
2024-05-09T00:00:34.186Z,0
2024-05-09T00:01:50.482Z,0
2024-05-09T00:03:06.784Z,0
2024-05-09T00:04:23.067Z,0
2024-05-09T00:05:38.375Z,0
2024-05-09T00:06:54.633Z,0
2024-05-09T00:08:10.965Z,0
2024-05-09T00:09:27.231Z,0
2024-05-09T00:10:43.548Z,0
2024-05-09T00:11:59.805Z,0
2024-05-09T00:13:16.099Z,0
2024-05-09T00:14:32.399Z,0
2024-05-09T00:15:48.723Z,0
2024-05-09T00:17:05.017Z,0
2024-05-09T00:18:21.274Z,0
2024-05-09T00:19:37.606Z,0
2024-05-09T00:20:53.872Z,0
2024-05-09T00:22:09.224Z,0
2024-05-09T00:23:25.466Z,0
2024-05-09T00:24:41.760Z,0
2024-05-09T00:25:58.102Z,0
2024-05-09T00:27:14.345Z,0
2024-05-09T00:28:30.643Z,0
2024-05-09T00:29:46.947Z,0
2024-05-09T00:31:03.228Z,0
2024-05-09T00:32:19.531Z,0
2024-05-09T00:33:35.822Z,0
2024-05-09T00:34:52.125Z,0
2024-05-09T00:36:08.418Z,0
2024-05-09T00:37:24.696Z,0
2024-05-09T00:38:40.050Z,0
2024-05-09T00:39:56.301Z,0
2024-05-09T00:41:12.649Z,0
2024-05-09T00:42:28.939Z,0
2024-05-09T00:43:45.187Z,0
2024-05-09T00:45:01.477Z,0
2024-05-09T00:46:17.000Z,0
2024-05-09T00:47:34.077Z,0
2024-05-09T00:48:50.403Z,0
2024-05-09T00:50:06.667Z,0
2024-05-09T00:51:22.000Z,0
2024-05-09T00:52:39.291Z,0
2024-05-09T00:53:55.590Z,0
2024-05-09T00:55:10.847Z,0
2024-05-09T00:56:27.145Z,0
2024-05-09T00:57:43.450Z,0
2024-05-09T00:58:59.783Z,0
2024-05-09T01:00:16.021Z,0
2024-05-09T01:01:32.360Z,0
2024-05-09T01:02:47.645Z,0
2024-05-09T01:04:03.969Z,0
2024-05-09T01:05:20.262Z,0
2024-05-09T01:06:36.515Z,0
2024-05-09T01:07:52.826Z,0
2024-05-09T01:09:09.108Z,0
2024-05-09T01:10:25.402Z,0
2024-05-09T01:11:41.690Z,0
2024-05-09T01:12:57.982Z,0
2024-05-09T01:14:14.295Z,0
2024-05-09T01:15:30.577Z,0
2024-05-09T01:16:46.920Z,0
2024-05-09T01:18:03.161Z,0
2024-05-09T01:19:18.483Z,0
2024-05-09T01:20:34.818Z,0
2024-05-09T01:21:51.063Z,0
2024-05-09T01:23:07.372Z,0
2024-05-09T01:24:23.645Z,0
2024-05-09T01:25:39.958Z,0
2024-05-09T01:26:56.276Z,0
2024-05-09T01:28:12.542Z,0
2024-05-09T01:29:28.833Z,0
2024-05-09T01:30:45.162Z,0
2024-05-09T01:32:01.464Z,0
2024-05-09T01:33:17.760Z,0
2024-05-09T01:34:34.043Z,0
2024-05-09T01:35:49.312Z,0
2024-05-09T01:37:05.605Z,0
2024-05-09T01:38:21.898Z,0
2024-05-09T01:39:38.190Z,0
2024-05-09T01:40:54.486Z,0
2024-05-09T01:42:10.832Z,0
2024-05-09T01:43:27.071Z,0
2024-05-09T01:44:43.376Z,0
2024-05-09T01:45:59.678Z,0
2024-05-09T01:47:16.003Z,0
2024-05-09T01:48:32.247Z,0
2024-05-09T01:49:48.560Z,0
2024-05-09T01:51:04.850Z,0
2024-05-09T01:52:20.162Z,0
2024-05-09T01:53:36.444Z,0
2024-05-09T01:54:52.000Z,0
2024-05-09T01:56:09.089Z,0
2024-05-09T01:57:25.368Z,0
2024-05-09T01:58:41.614Z,0
2024-05-09T01:59:57.915Z,0
2024-05-09T02:01:14.218Z,0
2024-05-09T02:02:30.558Z,0
2024-05-09T02:03:46.849Z,0
2024-05-09T02:05:03.087Z,0
2024-05-09T02:06:19.439Z,0
2024-05-09T02:07:35.683Z,0
2024-05-09T02:08:51.037Z,0
2024-05-09T02:10:07.328Z,0
2024-05-09T02:11:23.571Z,0
2024-05-09T02:12:39.869Z,0
2024-05-09T02:13:56.163Z,0
2024-05-09T02:15:12.460Z,0
2024-05-09T02:16:28.800Z,0
2024-05-09T02:17:45.094Z,0
2024-05-09T02:19:01.340Z,0
2024-05-09T02:20:17.640Z,0
2024-05-09T02:21:33.924Z,0
2024-05-09T02:22:50.230Z,0
2024-05-09T02:24:06.531Z,0
2024-05-09T02:25:21.869Z,0
2024-05-09T02:26:38.123Z,0
2024-05-09T02:27:54.458Z,0
2024-05-09T02:29:10.722Z,0
2024-05-09T02:30:27.006Z,0
2024-05-09T02:31:43.309Z,0
2024-05-09T02:32:59.590Z,0
2024-05-09T02:34:15.883Z,0
2024-05-09T02:35:32.181Z,0
2024-05-09T02:36:48.479Z,0
2024-05-09T02:38:04.776Z,0
2024-05-09T02:39:21.078Z,0
2024-05-09T02:40:37.397Z,0
2024-05-09T02:41:52.664Z,0
2024-05-09T02:43:08.960Z,0
2024-05-09T02:44:25.303Z,0
2024-05-09T02:45:41.544Z,0
2024-05-09T02:46:57.887Z,0
2024-05-09T02:48:14.137Z,0
2024-05-09T02:49:30.431Z,0
2024-05-09T02:50:46.721Z,0
2024-05-09T02:52:03.010Z,1
2024-05-09T02:53:19.255Z,0
2024-05-09T02:54:35.569Z,0
2024-05-09T02:55:51.800Z,1
2024-05-09T02:57:08.051Z,1
2024-05-09T02:58:23.308Z,1
2024-05-09T02:59:39.642Z,0
2024-05-09T03:00:55.895Z,0
2024-05-09T03:02:12.190Z,2
2024-05-09T03:03:28.422Z,1
2024-05-09T03:04:44.672Z,0
2024-05-09T03:06:00.971Z,1
2024-05-09T03:07:17.167Z,1
2024-05-09T03:08:33.417Z,2
2024-05-09T03:09:49.693Z,8
2024-05-09T03:11:05.885Z,6
2024-05-09T03:12:22.170Z,4
2024-05-09T03:13:38.376Z,3
2024-05-09T03:14:53.674Z,8
2024-05-09T03:16:09.872Z,11
2024-05-09T03:17:26.117Z,12
2024-05-09T03:18:42.396Z,11
2024-05-09T03:19:58.643Z,13
2024-05-09T03:21:14.865Z,16
2024-05-09T03:22:31.124Z,18
2024-05-09T03:23:47.309Z,20
2024-05-09T03:25:03.594Z,23
2024-05-09T03:26:19.834Z,25
2024-05-09T03:27:36.069Z,31
2024-05-09T03:28:52.318Z,32
2024-05-09T03:30:08.517Z,34
2024-05-09T03:31:23.814Z,32
2024-05-09T03:32:40.008Z,38
2024-05-09T03:33:56.237Z,40
2024-05-09T03:35:12.534Z,44
2024-05-09T03:36:28.765Z,50
2024-05-09T03:37:44.964Z,55
2024-05-09T03:39:01.249Z,59
2024-05-09T03:40:17.489Z,66
2024-05-09T03:41:33.674Z,73
2024-05-09T03:42:49.924Z,80
2024-05-09T03:44:06.168Z,88
2024-05-09T03:45:22.397Z,98
2024-05-09T03:46:38.648Z,113
2024-05-09T03:47:53.902Z,128
2024-05-09T03:49:10.195Z,141
2024-05-09T03:50:26.371Z,158
2024-05-09T03:51:42.614Z,165
2024-05-09T03:52:58.857Z,183
2024-05-09T03:54:15.111Z,184
2024-05-09T03:55:31.337Z,197
2024-05-09T03:56:47.575Z,202
2024-05-09T03:58:03.817Z,208
2024-05-09T03:59:20.114Z,216
2024-05-09T04:00:36.348Z,232
2024-05-09T04:01:52.583Z,244
2024-05-09T04:03:08.791Z,255
2024-05-09T04:04:24.031Z,265
2024-05-09T04:05:40.333Z,285
2024-05-09T04:06:56.573Z,293
2024-05-09T04:08:12.749Z,300
2024-05-09T04:09:28.991Z,307
2024-05-09T04:10:45.233Z,325
2024-05-09T04:12:01.521Z,345
2024-05-09T04:13:17.761Z,370
2024-05-09T04:14:33.951Z,377
2024-05-09T04:15:50.204Z,421
2024-05-09T04:17:06.436Z,448
2024-05-09T04:18:22.720Z,477
2024-05-09T04:19:38.925Z,498
2024-05-09T04:20:54.180Z,526
2024-05-09T04:22:10.471Z,549
2024-05-09T04:23:26.695Z,560
2024-05-09T04:24:42.885Z,569
2024-05-09T04:25:59.145Z,598
2024-05-09T04:27:15.374Z,615
2024-05-09T04:28:31.618Z,627
2024-05-09T04:29:47.913Z,643
2024-05-09T04:31:04.086Z,659
2024-05-09T04:32:20.335Z,698
2024-05-09T04:33:36.565Z,740
2024-05-09T04:34:52.816Z,767
2024-05-09T04:36:09.057Z,791
2024-05-09T04:37:24.360Z,833
2024-05-09T04:38:40.546Z,707
2024-05-09T04:39:56.834Z,1040
2024-05-09T04:41:13.040Z,937
2024-05-09T04:42:29.265Z,1029
2024-05-09T04:43:45.565Z,418
2024-05-09T04:45:01.799Z,1061
2024-05-09T04:46:17.996Z,952
2024-05-09T04:47:34.227Z,1225
2024-05-09T04:48:50.526Z,1295
2024-05-09T04:50:06.762Z,1324
2024-05-09T04:51:22.946Z,1343
2024-05-09T04:52:39.191Z,1268
2024-05-09T04:53:54.454Z,1283
2024-05-09T04:55:10.692Z,1284
2024-05-09T04:56:26.917Z,1238
2024-05-09T04:57:43.210Z,1241
2024-05-09T04:58:59.411Z,1290
2024-05-09T05:00:15.649Z,1297
2024-05-09T05:01:31.896Z,1316
2024-05-09T05:02:48.134Z,1286
2024-05-09T05:04:04.373Z,1378
2024-05-09T05:05:20.606Z,1418
2024-05-09T05:06:36.889Z,1499
2024-05-09T05:07:53.080Z,1543
2024-05-09T05:09:09.320Z,1637
2024-05-09T05:10:24.576Z,1733
2024-05-09T05:11:40.827Z,1768
2024-05-09T05:12:57.065Z,1676
2024-05-09T05:14:13.295Z,1854
2024-05-09T05:15:29.546Z,1571
2024-05-09T05:16:45.785Z,1698
2024-05-09T05:18:01.041Z,1855
2024-05-09T05:19:17.288Z,2881
2024-05-09T05:20:33.582Z,2199
2024-05-09T05:21:49.808Z,2768
2024-05-09T05:23:05.997Z,1987
2024-05-09T05:24:22.237Z,1987
2024-05-09T05:25:38.492Z,1920
2024-05-09T05:26:54.722Z,1854
2024-05-09T05:28:11.009Z,1804
2024-05-09T05:29:27.198Z,1629
2024-05-09T05:30:43.494Z,2140
2024-05-09T05:31:59.692Z,1406
2024-05-09T05:33:15.935Z,2761
2024-05-09T05:35:48.519Z,1998
2024-05-09T05:37:04.775Z,2128
2024-05-09T05:38:20.997Z,2194
2024-05-09T05:39:37.236Z,2173
2024-05-09T05:40:53.538Z,2067
2024-05-09T05:42:09.724Z,2389
2024-05-09T05:43:26.027Z,2354
2024-05-09T05:44:42.199Z,2390
2024-05-09T05:45:58.442Z,2631
2024-05-09T05:47:14.741Z,2518
2024-05-09T05:48:30.925Z,2074
2024-05-09T05:49:47.173Z,2327
2024-05-09T05:51:02.477Z,3535
2024-05-09T05:52:18.660Z,2598
2024-05-09T05:53:34.903Z,2455
2024-05-09T05:54:51.200Z,1373
2024-05-09T05:56:07.383Z,4450
2024-05-09T05:57:23.620Z,2559
2024-05-09T05:58:39.855Z,2483
2024-05-09T05:59:56.097Z,2318
2024-05-09T06:01:12.392Z,3210
2024-05-09T06:02:28.575Z,1229
2024-05-09T06:03:44.823Z,5945
2024-05-09T06:05:01.060Z,3244
2024-05-09T06:06:17.295Z,3099
2024-05-09T06:07:32.568Z,3081
2024-05-09T06:08:48.804Z,3023
2024-05-09T06:10:05.082Z,3087
2024-05-09T06:11:21.274Z,3062
2024-05-09T06:12:37.524Z,3589
2024-05-09T06:13:53.752Z,2416
2024-05-09T06:15:10.043Z,3989
2024-05-09T06:16:26.289Z,2063
2024-05-09T06:17:42.478Z,7543
2024-05-09T06:18:58.717Z,3874
2024-05-09T06:20:14.968Z,1867
2024-05-09T06:21:31.196Z,7048
2024-05-09T06:22:47.437Z,1596
2024-05-09T06:24:02.000Z,7390
2024-05-09T06:25:18.922Z,3977
2024-05-09T06:26:35.168Z,4066
2024-05-09T06:27:51.417Z,5549
2024-05-09T06:30:23.888Z,4964
2024-05-09T06:31:40.181Z,5057
2024-05-09T06:32:56.418Z,4873
2024-05-09T06:35:28.905Z,6888
2024-05-09T06:36:45.085Z,2427
2024-05-09T06:38:01.379Z,7244
2024-05-09T06:39:17.619Z,3951
2024-05-09T06:40:32.834Z,4989
2024-05-09T06:41:49.117Z,4097
2024-05-09T06:43:05.353Z,4576
2024-05-09T06:44:21.539Z,4507
2024-05-09T06:45:37.787Z,2806
2024-05-09T06:46:54.028Z,6808
2024-05-09T06:48:10.258Z,2338
2024-05-09T06:49:26.512Z,7201
2024-05-09T06:50:42.748Z,3905
2024-05-09T06:51:59.029Z,4338
2024-05-09T06:53:15.217Z,5207
2024-05-09T06:54:31.528Z,5708
2024-05-09T06:55:47.754Z,5523
2024-05-09T06:57:02.955Z,5495
2024-05-09T06:58:19.250Z,5641
2024-05-09T06:59:35.493Z,5060
2024-05-09T07:00:51.732Z,5382
2024-05-09T07:02:07.980Z,5421
2024-05-09T07:03:24.220Z,5319
2024-05-09T07:04:40.403Z,5378
2024-05-09T07:05:56.630Z,5340
2024-05-09T07:07:12.887Z,5263
2024-05-09T07:08:29.116Z,5250
2024-05-09T07:09:45.363Z,5342
2024-05-09T07:11:01.656Z,5057
2024-05-09T07:12:17.889Z,5293
2024-05-09T07:13:33.139Z,5784
2024-05-09T07:14:49.324Z,5102
2024-05-09T07:16:05.581Z,4522
2024-05-09T07:17:21.861Z,5457
2024-05-09T07:18:38.106Z,5427
2024-05-09T07:19:54.285Z,5579
2024-05-09T07:21:10.522Z,5654
2024-05-09T07:22:26.770Z,5737
2024-05-09T07:23:43.074Z,5843
2024-05-09T07:24:59.248Z,5844
2024-05-09T07:26:15.490Z,5867
2024-05-09T07:27:31.736Z,5939
2024-05-09T07:28:48.022Z,6046
2024-05-09T07:30:03.237Z,6034
2024-05-09T07:31:19.460Z,6075
2024-05-09T07:32:35.769Z,6156
2024-05-09T07:33:51.955Z,6144
2024-05-09T07:35:08.249Z,6211
2024-05-09T07:36:24.420Z,6226
2024-05-09T07:37:40.659Z,6353
2024-05-09T07:40:13.197Z,6443
2024-05-09T07:41:29.439Z,6176
2024-05-09T07:42:45.688Z,6334
2024-05-09T07:44:01.858Z,6324
2024-05-09T07:45:18.162Z,6472
2024-05-09T07:46:33.358Z,6214
2024-05-09T07:47:49.657Z,6507
2024-05-09T07:49:05.836Z,6519
2024-05-09T07:50:22.082Z,6689
2024-05-09T07:51:38.309Z,6727
2024-05-09T07:52:54.610Z,6619
2024-05-09T07:54:10.798Z,6628
2024-05-09T07:55:27.100Z,6716
2024-05-09T07:56:43.270Z,6697
2024-05-09T07:57:59.514Z,6807
2024-05-09T07:59:15.820Z,6846
2024-05-09T08:00:31.989Z,6856
2024-05-09T08:01:48.239Z,6830
2024-05-09T08:03:03.491Z,6766
2024-05-09T08:04:19.727Z,6783
2024-05-09T08:05:35.974Z,6826
2024-05-09T08:06:52.275Z,6844
2024-05-09T08:08:08.454Z,6881
2024-05-09T08:09:24.694Z,6974
2024-05-09T08:10:40.994Z,7028
2024-05-09T08:11:57.159Z,7031
2024-05-09T08:13:13.415Z,6572
2024-05-09T08:14:29.646Z,7002
2024-05-09T08:15:45.949Z,7033
2024-05-09T08:17:02.180Z,7076
2024-05-09T08:18:18.363Z,7068
2024-05-09T08:19:33.690Z,7120
2024-05-09T08:20:49.858Z,7152
2024-05-09T08:22:06.098Z,7183
2024-05-09T08:24:38.581Z,7220
2024-05-09T08:25:54.818Z,7277
2024-05-09T08:27:11.067Z,7236
2024-05-09T08:29:43.593Z,7296
2024-05-09T08:30:59.773Z,7349
2024-05-09T08:32:16.026Z,7333
2024-05-09T08:33:32.254Z,7403
2024-05-09T08:34:48.499Z,7394
2024-05-09T08:36:03.764Z,7454
2024-05-09T08:37:20.054Z,7502
2024-05-09T08:38:36.297Z,7552
2024-05-09T08:39:52.467Z,7543
2024-05-09T08:41:08.769Z,7529
2024-05-09T08:42:24.943Z,7499
2024-05-09T08:43:41.185Z,7485
2024-05-09T08:44:57.496Z,7552
2024-05-09T08:46:13.676Z,7639
2024-05-09T08:47:29.905Z,7714
2024-05-09T08:48:46.141Z,7643
2024-05-09T08:50:02.451Z,7721
2024-05-09T08:51:18.628Z,7852
2024-05-09T08:52:33.948Z,7707
2024-05-09T08:53:50.178Z,7812
2024-05-09T08:55:06.355Z,7849
2024-05-09T08:56:22.659Z,7843
2024-05-09T08:57:38.845Z,7806
2024-05-09T08:58:55.138Z,7860
2024-05-09T09:00:11.320Z,7902
2024-05-09T09:01:27.617Z,7906
2024-05-09T09:02:43.796Z,7934
2024-05-09T09:04:00.035Z,7930
2024-05-09T09:05:16.279Z,8027
2024-05-09T09:06:32.533Z,8013
2024-05-09T09:07:48.826Z,8128
2024-05-09T09:09:04.015Z,8099
2024-05-09T09:10:20.255Z,8096
2024-05-09T09:11:36.503Z,8142
2024-05-09T09:12:52.807Z,8149
2024-05-09T09:14:08.979Z,8279
2024-05-09T09:15:25.278Z,8255
2024-05-09T09:16:41.515Z,8195
2024-05-09T09:17:57.695Z,8260
2024-05-09T09:19:13.932Z,8268
2024-05-09T09:20:30.234Z,8291
2024-05-09T09:21:46.414Z,8192
2024-05-09T09:23:02.711Z,8348
2024-05-09T09:24:18.902Z,8360
2024-05-09T09:25:34.161Z,8353
2024-05-09T09:26:50.391Z,8410
2024-05-09T09:28:06.697Z,8661
2024-05-09T09:29:22.878Z,8355
2024-05-09T09:30:39.119Z,8311
2024-05-09T09:31:55.344Z,8207
2024-05-09T09:33:10.676Z,10059
2024-05-09T09:34:26.905Z,6642
2024-05-09T09:35:43.159Z,1729
2024-05-09T09:36:59.384Z,5629
2024-05-09T09:38:15.567Z,9112
2024-05-09T09:39:31.801Z,6849
2024-05-09T09:40:48.045Z,9896
2024-05-09T09:42:04.299Z,5216
2024-05-09T09:43:20.520Z,6828
2024-05-09T09:44:36.831Z,5746
2024-05-09T09:47:09.241Z,6240
2024-05-09T09:48:25.489Z,6153
2024-05-09T09:49:40.744Z,5997
2024-05-09T09:50:56.989Z,5861
2024-05-09T09:52:13.289Z,5701
2024-05-09T09:53:29.470Z,5497
2024-05-09T09:54:45.758Z,6052
2024-05-09T09:56:01.938Z,5897
2024-05-09T09:57:18.244Z,5534
2024-05-09T09:58:34.419Z,5749
2024-05-09T09:59:50.649Z,5879
2024-05-09T10:01:06.897Z,6155
2024-05-09T10:02:23.201Z,5507
2024-05-09T10:03:39.371Z,4528
2024-05-09T10:04:55.616Z,2029
2024-05-09T10:06:10.883Z,7527
2024-05-09T10:07:27.122Z,8244
2024-05-09T10:08:43.344Z,7838
2024-05-09T10:09:59.586Z,7767
2024-05-09T10:11:15.825Z,7771
2024-05-09T10:12:32.069Z,7640
2024-05-09T10:13:48.308Z,7380
2024-05-09T10:15:04.561Z,6969
2024-05-09T10:16:20.784Z,6945
2024-05-09T10:17:37.097Z,6637
2024-05-09T10:18:53.275Z,6775
2024-05-09T10:20:09.507Z,6289
2024-05-09T10:21:25.814Z,6163
2024-05-09T10:23:57.304Z,6295
2024-05-09T10:25:13.493Z,6084
2024-05-09T10:26:29.718Z,5943
2024-05-09T10:27:45.956Z,6149
2024-05-09T10:29:02.197Z,6138
2024-05-09T10:30:18.444Z,6113
2024-05-09T10:31:34.760Z,6286
2024-05-09T10:32:50.929Z,6708
2024-05-09T10:34:07.235Z,5372
2024-05-09T10:35:23.476Z,6392
2024-05-09T10:36:39.700Z,5979
2024-05-09T10:37:55.878Z,6265
2024-05-09T10:39:11.194Z,6169
2024-05-09T10:40:27.370Z,6740
2024-05-09T10:41:43.609Z,7150
2024-05-09T10:42:59.847Z,5392
2024-05-09T10:44:16.092Z,3181
2024-05-09T10:45:32.330Z,5540
2024-05-09T10:46:48.645Z,5649
2024-05-09T10:48:04.875Z,6095
2024-05-09T10:49:21.055Z,6049
2024-05-09T10:50:37.362Z,7186
2024-05-09T10:51:53.524Z,5527
2024-05-09T10:53:09.776Z,5561
2024-05-09T10:54:26.078Z,4575
2024-05-09T10:55:41.267Z,4512
2024-05-09T10:56:57.502Z,6731
2024-05-09T10:58:13.809Z,6183
2024-05-09T10:59:29.991Z,4852
2024-05-09T11:00:46.224Z,4914
2024-05-09T11:02:02.457Z,5440
2024-05-09T11:03:18.714Z,5355
2024-05-09T11:04:34.935Z,5445
2024-05-09T11:05:51.251Z,5522
2024-05-09T11:07:07.435Z,5527
2024-05-09T11:08:23.656Z,5413
2024-05-09T11:09:39.913Z,5510
2024-05-09T11:10:56.203Z,5381
2024-05-09T11:12:11.398Z,5363
2024-05-09T11:13:27.639Z,5558
2024-05-09T11:14:43.869Z,5572
2024-05-09T11:16:00.118Z,5511
2024-05-09T11:17:16.425Z,5454
2024-05-09T11:18:32.662Z,5335
2024-05-09T11:19:48.910Z,5249
2024-05-09T11:21:05.140Z,5129
2024-05-09T11:22:21.307Z,5077
2024-05-09T11:23:37.554Z,5127
2024-05-09T11:24:53.863Z,5112
2024-05-09T11:26:10.112Z,5027
2024-05-09T11:27:26.354Z,5037
2024-05-09T11:28:41.529Z,4792
2024-05-09T11:29:57.771Z,4846
2024-05-09T11:31:14.003Z,4540
2024-05-09T11:32:30.247Z,4733
2024-05-09T11:33:46.554Z,4908
2024-05-09T11:35:02.726Z,4848
2024-05-09T11:36:18.973Z,4931
2024-05-09T11:37:35.290Z,4941
2024-05-09T11:38:51.439Z,4944
2024-05-09T11:40:07.687Z,4855
2024-05-09T11:41:23.928Z,4794
2024-05-09T11:42:40.166Z,4742
2024-05-09T11:43:56.399Z,4720
2024-05-09T11:45:11.656Z,4648
2024-05-09T11:46:27.900Z,5294
2024-05-09T11:47:44.219Z,4141
2024-05-09T11:49:00.449Z,5377
2024-05-09T11:50:16.700Z,4008
2024-05-09T11:51:32.941Z,4632
2024-05-09T11:52:49.092Z,4124
2024-05-09T11:54:05.342Z,5123
2024-05-09T11:55:21.576Z,3863
2024-05-09T11:56:37.829Z,4728
2024-05-09T11:57:54.070Z,5091
2024-05-09T11:59:10.378Z,3958
2024-05-09T12:00:26.615Z,5596
2024-05-09T12:01:41.803Z,4436
2024-05-09T12:02:58.041Z,4659
2024-05-09T12:04:14.284Z,3329
2024-05-09T12:05:30.503Z,5122
2024-05-09T12:06:46.823Z,4187
2024-05-09T12:08:02.985Z,4028
2024-05-09T12:09:19.234Z,3987
2024-05-09T12:10:35.540Z,4019
2024-05-09T12:11:51.790Z,4065
2024-05-09T12:13:07.954Z,4184
2024-05-09T12:14:24.276Z,4333
2024-05-09T12:15:40.495Z,4074
2024-05-09T12:18:12.912Z,4290
2024-05-09T12:19:28.170Z,4698
2024-05-09T12:20:44.399Z,4808
2024-05-09T12:22:00.654Z,3509
2024-05-09T12:24:33.127Z,4162
2024-05-09T12:25:49.364Z,4467
2024-05-09T12:27:05.674Z,4284
2024-05-09T12:28:21.914Z,4168
2024-05-09T12:29:38.089Z,5088
2024-05-09T12:30:54.345Z,4321
2024-05-09T12:32:10.000Z,3746
2024-05-09T12:33:26.000Z,2739
2024-05-09T12:34:43.039Z,4452
2024-05-09T12:35:58.300Z,2861
2024-05-09T12:37:14.544Z,4728
2024-05-09T12:38:30.783Z,2444
2024-05-09T12:39:47.012Z,3800
2024-05-09T12:41:03.254Z,3826
2024-05-09T12:42:19.518Z,3957
2024-05-09T12:43:35.736Z,3833
2024-05-09T12:44:52.003Z,3622
2024-05-09T12:46:08.226Z,3627
2024-05-09T12:47:24.453Z,3620
2024-05-09T12:48:40.692Z,3508
2024-05-09T12:49:56.935Z,3526
2024-05-09T12:51:13.183Z,3650
2024-05-09T12:52:28.423Z,3773
2024-05-09T12:53:44.676Z,3455
2024-05-09T12:55:00.917Z,3513
2024-05-09T12:56:17.138Z,3439
2024-05-09T12:57:33.384Z,3593
2024-05-09T12:58:49.659Z,3612
2024-05-09T13:00:05.890Z,3455
2024-05-09T13:01:22.100Z,3891
2024-05-09T13:02:38.347Z,3513
2024-05-09T13:03:54.593Z,3818
2024-05-09T13:05:10.855Z,3399
2024-05-09T13:06:27.055Z,4033
2024-05-09T13:07:43.297Z,2422
2024-05-09T13:08:58.551Z,3636
2024-05-09T13:10:14.789Z,2757
2024-05-09T13:11:31.035Z,2071
2024-05-09T13:12:47.285Z,3847
2024-05-09T13:14:03.527Z,1561
2024-05-09T13:15:19.783Z,4153
2024-05-09T13:16:36.018Z,2110
2024-05-09T13:17:52.245Z,3434
2024-05-09T13:19:08.502Z,4058
2024-05-09T13:20:24.705Z,2975
2024-05-09T13:21:40.982Z,3273
2024-05-09T13:22:57.185Z,1778
2024-05-09T13:24:13.464Z,3059
2024-05-09T13:25:28.722Z,4061
2024-05-09T13:26:44.920Z,1730
2024-05-09T13:28:01.173Z,3591
2024-05-09T13:29:17.398Z,3383
2024-05-09T13:30:33.656Z,3528
2024-05-09T13:31:49.879Z,3619
2024-05-09T13:33:06.129Z,3418
2024-05-09T13:34:22.393Z,3466
2024-05-09T13:35:38.610Z,3486
2024-05-09T13:36:54.867Z,3476
2024-05-09T13:38:11.119Z,3383
2024-05-09T13:39:27.324Z,3686
2024-05-09T13:40:43.567Z,2601
2024-05-09T13:41:59.930Z,3030
2024-05-09T13:43:16.198Z,3061
2024-05-09T13:44:32.402Z,2950
2024-05-09T13:45:48.654Z,3000
2024-05-09T13:47:04.892Z,2902
2024-05-09T13:48:20.138Z,2860
2024-05-09T13:49:36.380Z,2700
2024-05-09T13:50:52.616Z,2716
2024-05-09T13:52:08.889Z,2699
2024-05-09T13:53:25.139Z,2722
2024-05-09T13:54:41.347Z,2635
2024-05-09T13:55:57.604Z,2995
2024-05-09T13:57:13.843Z,2834
2024-05-09T13:58:30.060Z,1991
2024-05-09T13:59:46.297Z,2527
2024-05-09T14:01:02.541Z,2754
2024-05-09T14:02:18.771Z,2756
2024-05-09T14:03:35.018Z,1582
2024-05-09T14:04:51.375Z,2881
2024-05-09T14:06:07.629Z,2470
2024-05-09T14:07:23.884Z,2427
2024-05-09T14:08:40.101Z,2386
2024-05-09T14:09:56.343Z,1381
2024-05-09T14:11:12.572Z,2434
2024-05-09T14:12:28.827Z,2400
2024-05-09T14:13:45.086Z,2475
2024-05-09T14:15:01.332Z,2294
2024-05-09T14:16:17.561Z,2523
2024-05-09T14:17:33.769Z,2295
2024-05-09T14:18:50.008Z,2457
2024-05-09T14:20:06.261Z,2316
2024-05-09T14:21:21.507Z,2578
2024-05-09T14:22:37.781Z,2464
2024-05-09T14:23:53.990Z,2571
2024-05-09T14:25:10.231Z,2606
2024-05-09T14:26:26.462Z,2509
2024-05-09T14:27:42.736Z,2439
2024-05-09T14:28:58.956Z,3002
2024-05-09T14:30:15.183Z,2024
2024-05-09T14:31:31.425Z,2162
2024-05-09T14:32:47.678Z,2081
2024-05-09T14:34:03.917Z,2386
2024-05-09T14:35:20.170Z,2427
2024-05-09T14:36:36.380Z,2447
2024-05-09T14:37:52.748Z,2428
2024-05-09T14:39:09.012Z,2468
2024-05-09T14:40:25.231Z,2441
2024-05-09T14:41:41.465Z,2416
2024-05-09T14:42:57.715Z,2438
2024-05-09T14:44:13.937Z,2363
2024-05-09T14:45:30.190Z,2318
2024-05-09T14:46:46.435Z,2367
2024-05-09T14:48:02.705Z,2316
2024-05-09T14:49:18.909Z,2288
2024-05-09T14:50:35.172Z,2270
2024-05-09T14:51:51.386Z,2237
2024-05-09T14:53:07.627Z,2288
2024-05-09T14:54:22.889Z,2224
2024-05-09T14:55:39.108Z,2205
2024-05-09T14:56:55.356Z,2179
2024-05-09T14:58:11.599Z,2125
2024-05-09T14:59:27.872Z,2121
2024-05-09T15:00:44.104Z,2036
2024-05-09T15:02:00.343Z,2095
2024-05-09T15:03:16.577Z,2142
2024-05-09T15:04:32.831Z,2091
2024-05-09T15:05:49.060Z,2040
2024-05-09T15:07:05.303Z,2125
2024-05-09T15:08:21.531Z,2421
2024-05-09T15:09:37.791Z,2260
2024-05-09T15:10:54.145Z,1825
2024-05-09T15:12:10.370Z,1026
2024-05-09T15:13:26.621Z,2036
2024-05-09T15:14:42.866Z,2121
2024-05-09T15:15:59.101Z,2153
2024-05-09T15:17:15.331Z,2147
2024-05-09T15:18:31.573Z,2092
2024-05-09T15:19:47.822Z,2009
2024-05-09T15:21:04.058Z,2078
2024-05-09T15:22:20.299Z,2075
2024-05-09T15:23:36.541Z,2098
2024-05-09T15:24:52.777Z,2086
2024-05-09T15:26:09.024Z,2034
2024-05-09T15:28:40.502Z,2005
2024-05-09T15:29:56.746Z,2047
2024-05-09T15:31:12.980Z,1995
2024-05-09T15:32:29.224Z,1995
2024-05-09T15:33:45.460Z,1937
2024-05-09T15:35:01.706Z,1918
2024-05-09T15:36:17.952Z,1937
2024-05-09T15:37:34.195Z,2093
2024-05-09T15:38:50.439Z,1722
2024-05-09T15:40:06.675Z,1951
2024-05-09T15:41:22.901Z,1906
2024-05-09T15:42:39.153Z,1894
2024-05-09T15:43:54.414Z,1826
2024-05-09T15:45:10.640Z,2121
2024-05-09T15:46:26.883Z,1559
2024-05-09T15:47:43.126Z,1793
2024-05-09T15:48:59.361Z,1794
2024-05-09T15:50:15.000Z,1774
2024-05-09T15:51:31.846Z,1800
2024-05-09T15:52:48.087Z,1699
2024-05-09T15:54:04.323Z,1706
2024-05-09T15:55:20.562Z,1648
2024-05-09T15:56:36.798Z,1689
2024-05-09T15:57:53.035Z,1704
2024-05-09T15:59:09.271Z,1679
2024-05-09T16:00:24.551Z,1631
2024-05-09T16:01:40.769Z,1681
2024-05-09T16:02:57.021Z,1671
2024-05-09T16:04:13.268Z,1620
2024-05-09T16:05:29.502Z,1612
2024-05-09T16:06:45.751Z,1585
2024-05-09T16:08:01.984Z,1662
2024-05-09T16:09:18.207Z,1621
2024-05-09T16:10:34.000Z,1588
2024-05-09T16:11:50.683Z,1635
2024-05-09T16:13:06.929Z,1590
2024-05-09T16:14:23.167Z,1593
2024-05-09T16:15:39.407Z,1540
2024-05-09T16:16:54.674Z,1450
2024-05-09T16:18:10.911Z,1564
2024-05-09T16:19:27.150Z,1592
2024-05-09T16:20:43.376Z,1373
2024-05-09T16:21:59.629Z,1434
2024-05-09T16:23:15.864Z,1610
2024-05-09T16:24:32.110Z,1559
2024-05-09T16:25:48.342Z,1269
2024-05-09T16:27:04.587Z,1307
2024-05-09T16:28:20.821Z,856
2024-05-09T16:29:37.075Z,1461
2024-05-09T16:32:09.532Z,1459
2024-05-09T16:33:24.803Z,1480
2024-05-09T16:34:41.030Z,1469
2024-05-09T16:35:57.281Z,1441
2024-05-09T16:37:13.518Z,1441
2024-05-09T16:38:29.746Z,1447
2024-05-09T16:39:46.007Z,1368
2024-05-09T16:41:02.238Z,1353
2024-05-09T16:42:18.477Z,1358
2024-05-09T16:43:34.714Z,1384
2024-05-09T16:44:50.961Z,1358
2024-05-09T16:46:07.191Z,1417
2024-05-09T16:47:23.443Z,1373
2024-05-09T16:48:39.668Z,1341
2024-05-09T16:49:54.920Z,1339
2024-05-09T16:51:11.163Z,1332
2024-05-09T16:52:27.409Z,1352
2024-05-09T16:53:43.643Z,1320
2024-05-09T16:54:59.882Z,1347
2024-05-09T16:56:16.000Z,1288
2024-05-09T16:57:32.375Z,1352
2024-05-09T16:58:48.610Z,1352
2024-05-09T17:00:04.835Z,1338
2024-05-09T17:01:21.083Z,1311
2024-05-09T17:02:37.328Z,1226
2024-05-09T17:03:53.584Z,1381
2024-05-09T17:05:09.804Z,1323
2024-05-09T17:06:25.050Z,1290
2024-05-09T17:07:41.303Z,1221
2024-05-09T17:08:57.556Z,1232
2024-05-09T17:10:13.771Z,1174
2024-05-09T17:11:30.030Z,1168
2024-05-09T17:12:46.260Z,1117
2024-05-09T17:14:02.500Z,1094
2024-05-09T17:15:18.737Z,1114
2024-05-09T17:16:34.968Z,1092
2024-05-09T17:17:51.215Z,1003
2024-05-09T17:19:07.453Z,1006
2024-05-09T17:20:23.704Z,981
2024-05-09T17:21:39.927Z,1022
2024-05-09T17:22:55.198Z,1019
2024-05-09T17:24:11.439Z,1042
2024-05-09T17:25:27.678Z,1034
2024-05-09T17:26:43.909Z,1013
2024-05-09T17:28:00.145Z,987
2024-05-09T17:29:16.383Z,948
2024-05-09T17:30:32.624Z,987
2024-05-09T17:31:48.888Z,962
2024-05-09T17:33:05.109Z,967